sensor_id;sensor_type;location;lat;lon;timestamp;pressure;altitude;pressure_sealevel;temperature;humidity
64792;BME280;51226;47.504;19.074;2023-06-19T00:00:07;100156.19;;;20.91;53.97
64792;BME280;51226;47.504;19.074;2023-06-19T00:03:37;100157.09;;;20.87;53.91
64792;BME280;51226;47.504;19.074;2023-06-19T00:06:39;100149.16;;;20.81;54.28
64792;BME280;51226;47.504;19.074;2023-06-19T00:09:42;100161.56;;;20.81;54.23
64792;BME280;51226;47.504;19.074;2023-06-19T00:12:45;100157.19;;;20.77;54.40
64792;BME280;51226;47.504;19.074;2023-06-19T00:15:48;100159.84;;;20.75;54.56
64792;BME280;51226;47.504;19.074;2023-06-19T00:18:50;100159.88;;;20.70;54.75
64792;BME280;51226;47.504;19.074;2023-06-19T00:21:54;100153.72;;;20.65;54.96
64792;BME280;51226;47.504;19.074;2023-06-19T00:24:59;100160.81;;;20.65;55.25
64792;BME280;51226;47.504;19.074;2023-06-19T00:28:02;100166.06;;;20.68;55.31
64792;BME280;51226;47.504;19.074;2023-06-19T00:31:05;100152.81;;;20.66;55.49
64792;BME280;51226;47.504;19.074;2023-06-19T00:34:09;100148.41;;;20.61;55.80
64792;BME280;51226;47.504;19.074;2023-06-19T00:37:11;100144.91;;;20.59;56.04
64792;BME280;51226;47.504;19.074;2023-06-19T00:40:29;100144.06;;;20.52;56.26
64792;BME280;51226;47.504;19.074;2023-06-19T00:43:32;100145.84;;;20.51;56.59
64792;BME280;51226;47.504;19.074;2023-06-19T00:46:38;100145.78;;;20.56;56.26
64792;BME280;51226;47.504;19.074;2023-06-19T00:49:42;100142.28;;;20.52;56.31
64792;BME280;51226;47.504;19.074;2023-06-19T00:52:45;100146.72;;;20.47;56.46
64792;BME280;51226;47.504;19.074;2023-06-19T00:55:47;100149.41;;;20.46;56.58
64792;BME280;51226;47.504;19.074;2023-06-19T00:58:51;100148.56;;;20.39;56.60
64792;BME280;51226;47.504;19.074;2023-06-19T01:01:54;100145.91;;;20.36;56.72
64792;BME280;51226;47.504;19.074;2023-06-19T01:04:59;100139.75;;;20.35;56.98
64792;BME280;51226;47.504;19.074;2023-06-19T01:08:08;100145.03;;;20.37;57.01
64792;BME280;51226;47.504;19.074;2023-06-19T01:11:15;100135.31;;;20.36;56.83
64792;BME280;51226;47.504;19.074;2023-06-19T01:14:30;100134.47;;;20.29;57.02
64792;BME280;51226;47.504;19.074;2023-06-19T01:17:36;100138.03;;;20.30;57.36
64792;BME280;51226;47.504;19.074;2023-06-19T01:20:39;100138.87;;;20.32;57.69
64792;BME280;51226;47.504;19.074;2023-06-19T01:23:43;100143.25;;;20.37;57.37
64792;BME280;51226;47.504;19.074;2023-06-19T01:26:45;100134.47;;;20.32;57.56
64792;BME280;51226;47.504;19.074;2023-06-19T01:29:48;100140.69;;;20.30;57.68
64792;BME280;51226;47.504;19.074;2023-06-19T01:33:09;100146.84;;;20.27;58.02
64792;BME280;51226;47.504;19.074;2023-06-19T01:36:13;100135.37;;;20.27;58.50
64792;BME280;51226;47.504;19.074;2023-06-19T01:39:17;100143.25;;;20.36;58.32
64792;BME280;51226;47.504;19.074;2023-06-19T01:42:21;100127.44;;;20.30;58.44
64792;BME280;51226;47.504;19.074;2023-06-19T01:45:23;100126.59;;;20.20;58.75
64792;BME280;51226;47.504;19.074;2023-06-19T01:48:26;100126.62;;;20.09;59.12
64792;BME280;51226;47.504;19.074;2023-06-19T01:51:29;100122.25;;;20.08;59.28
64792;BME280;51226;47.504;19.074;2023-06-19T01:54:35;100117.84;;;20.04;59.23
64792;BME280;51226;47.504;19.074;2023-06-19T01:57:37;100121.41;;;20.05;58.86
64792;BME280;51226;47.504;19.074;2023-06-19T02:00:40;100124.06;;;20.00;58.87
64792;BME280;51226;47.504;19.074;2023-06-19T02:03:43;100122.28;;;19.97;59.04
64792;BME280;51226;47.504;19.074;2023-06-19T02:06:46;100125.00;;;19.91;59.43
64792;BME280;51226;47.504;19.074;2023-06-19T02:09:49;100130.25;;;19.94;59.52
64792;BME280;51226;47.504;19.074;2023-06-19T02:12:52;100122.34;;;19.87;59.88
64792;BME280;51226;47.504;19.074;2023-06-19T02:15:55;100131.16;;;19.84;60.16
64792;BME280;51226;47.504;19.074;2023-06-19T02:18:59;100132.97;;;19.77;60.59
64792;BME280;51226;47.504;19.074;2023-06-19T02:22:02;100134.72;;;19.72;60.88
64792;BME280;51226;47.504;19.074;2023-06-19T02:25:05;100131.22;;;19.67;61.13
64792;BME280;51226;47.504;19.074;2023-06-19T02:28:08;100132.13;;;19.65;61.32
64792;BME280;51226;47.504;19.074;2023-06-19T02:31:11;100137.41;;;19.61;61.54
64792;BME280;51226;47.504;19.074;2023-06-19T02:34:13;100132.13;;;19.54;61.81
64792;BME280;51226;47.504;19.074;2023-06-19T02:37:16;100138.31;;;19.51;62.17
64792;BME280;51226;47.504;19.074;2023-06-19T02:40:19;100134.78;;;19.51;62.31
64792;BME280;51226;47.504;19.074;2023-06-19T02:43:23;100140.97;;;19.47;62.54
64792;BME280;51226;47.504;19.074;2023-06-19T02:46:26;100142.72;;;19.51;62.24
64792;BME280;51226;47.504;19.074;2023-06-19T02:49:29;100140.97;;;19.40;62.24
64792;BME280;51226;47.504;19.074;2023-06-19T02:52:32;100145.41;;;19.37;62.37
64792;BME280;51226;47.504;19.074;2023-06-19T02:55:35;100142.75;;;19.38;62.33
64792;BME280;51226;47.504;19.074;2023-06-19T02:58:38;100145.41;;;19.32;62.53
64792;BME280;51226;47.504;19.074;2023-06-19T03:01:43;100153.34;;;19.29;63.09
64792;BME280;51226;47.504;19.074;2023-06-19T03:04:48;100152.47;;;19.30;63.38
64792;BME280;51226;47.504;19.074;2023-06-19T03:07:52;100147.19;;;19.27;63.61
64792;BME280;51226;47.504;19.074;2023-06-19T03:10:54;100146.31;;;19.28;63.82
64792;BME280;51226;47.504;19.074;2023-06-19T03:13:57;100152.47;;;19.21;64.00
64792;BME280;51226;47.504;19.074;2023-06-19T03:17:00;100156.88;;;19.19;64.30
64792;BME280;51226;47.504;19.074;2023-06-19T03:20:04;100156.88;;;19.17;64.55
64792;BME280;51226;47.504;19.074;2023-06-19T03:23:09;100163.03;;;19.19;64.59
64792;BME280;51226;47.504;19.074;2023-06-19T03:26:12;100160.41;;;19.15;64.86
64792;BME280;51226;47.504;19.074;2023-06-19T03:29:15;100167.47;;;19.23;64.70
64792;BME280;51226;47.504;19.074;2023-06-19T03:32:20;100173.63;;;19.22;64.73
64792;BME280;51226;47.504;19.074;2023-06-19T03:35:23;100178.03;;;19.28;64.37
64792;BME280;51226;47.504;19.074;2023-06-19T03:38:26;100186.84;;;19.33;64.04
64792;BME280;51226;47.504;19.074;2023-06-19T03:41:29;100178.03;;;19.27;64.15
64792;BME280;51226;47.504;19.074;2023-06-19T03:44:32;100173.63;;;19.29;63.38
64792;BME280;51226;47.504;19.074;2023-06-19T03:47:35;100176.25;;;19.32;63.50
64792;BME280;51226;47.504;19.074;2023-06-19T03:50:38;100181.56;;;19.29;63.43
64792;BME280;51226;47.504;19.074;2023-06-19T03:53:41;100179.78;;;19.31;63.46
64792;BME280;51226;47.504;19.074;2023-06-19T03:56:45;100180.66;;;19.33;63.44
64792;BME280;51226;47.504;19.074;2023-06-19T03:59:47;100173.63;;;19.36;63.52
64792;BME280;51226;47.504;19.074;2023-06-19T04:02:50;100175.38;;;19.37;63.43
64792;BME280;51226;47.504;19.074;2023-06-19T04:05:53;100176.25;;;19.33;63.54
64792;BME280;51226;47.504;19.074;2023-06-19T04:08:56;100171.84;;;19.35;63.73
64792;BME280;51226;47.504;19.074;2023-06-19T04:11:58;100177.13;;;19.43;63.57
64792;BME280;51226;47.504;19.074;2023-06-19T04:15:01;100177.09;;;19.48;63.23
64792;BME280;51226;47.504;19.074;2023-06-19T04:18:04;100176.22;;;19.50;63.37
64792;BME280;51226;47.504;19.074;2023-06-19T04:21:07;100175.31;;;19.57;63.16
64792;BME280;51226;47.504;19.074;2023-06-19T04:24:09;100170.03;;;19.56;63.32
64792;BME280;51226;47.504;19.074;2023-06-19T04:27:12;100188.56;;;19.54;63.35
64792;BME280;51226;47.504;19.074;2023-06-19T04:30:15;100183.25;;;19.53;63.62
64792;BME280;51226;47.504;19.074;2023-06-19T04:33:17;100183.25;;;19.53;63.91
64792;BME280;51226;47.504;19.074;2023-06-19T04:36:23;100177.97;;;19.56;63.43
64792;BME280;51226;47.504;19.074;2023-06-19T04:39:26;100176.22;;;19.52;63.43
64792;BME280;51226;47.504;19.074;2023-06-19T04:42:29;100183.25;;;19.54;63.32
64792;BME280;51226;47.504;19.074;2023-06-19T04:45:32;100178.88;;;19.56;63.53
64792;BME280;51226;47.504;19.074;2023-06-19T04:48:35;100184.13;;;19.67;63.84
64792;BME280;51226;47.504;19.074;2023-06-19T04:51:40;100181.47;;;19.67;63.61
64792;BME280;51226;47.504;19.074;2023-06-19T04:54:44;100186.78;;;19.66;63.64
64792;BME280;51226;47.504;19.074;2023-06-19T04:57:46;100187.62;;;19.72;63.76
64792;BME280;51226;47.504;19.074;2023-06-19T05:00:49;100186.75;;;19.79;63.34
64792;BME280;51226;47.504;19.074;2023-06-19T05:03:54;100192.97;;;19.78;63.75
64792;BME280;51226;47.504;19.074;2023-06-19T05:06:57;100181.47;;;19.81;63.69
64792;BME280;51226;47.504;19.074;2023-06-19T05:10:00;100189.44;;;19.76;63.64
64792;BME280;51226;47.504;19.074;2023-06-19T05:13:03;100202.63;;;19.79;63.21
64792;BME280;51226;47.504;19.074;2023-06-19T05:16:05;100206.19;;;19.82;61.90
64792;BME280;51226;47.504;19.074;2023-06-19T05:19:08;100207.06;;;19.87;61.85
64792;BME280;51226;47.504;19.074;2023-06-19T05:22:11;100212.34;;;19.91;61.42
64792;BME280;51226;47.504;19.074;2023-06-19T05:25:13;100215.00;;;19.90;61.65
64792;BME280;51226;47.504;19.074;2023-06-19T05:28:16;100218.50;;;19.96;61.23
64792;BME280;51226;47.504;19.074;2023-06-19T05:31:19;100220.25;;;19.93;61.52
64792;BME280;51226;47.504;19.074;2023-06-19T05:34:21;100212.28;;;19.99;61.38
64792;BME280;51226;47.504;19.074;2023-06-19T05:37:25;100213.16;;;20.06;61.17
64792;BME280;51226;47.504;19.074;2023-06-19T05:40:29;100214.00;;;20.18;60.46
64792;BME280;51226;47.504;19.074;2023-06-19T05:43:32;100215.72;;;20.24;60.01
64792;BME280;51226;47.504;19.074;2023-06-19T05:46:35;100219.22;;;20.28;59.97
64792;BME280;51226;47.504;19.074;2023-06-19T05:49:37;100220.09;;;20.36;59.72
64792;BME280;51226;47.504;19.074;2023-06-19T05:52:43;100213.03;;;20.38;60.00
64792;BME280;51226;47.504;19.074;2023-06-19T05:55:46;100220.06;;;20.42;59.32
64792;BME280;51226;47.504;19.074;2023-06-19T05:58:48;100227.16;;;20.40;59.61
64792;BME280;51226;47.504;19.074;2023-06-19T06:01:51;100227.97;;;20.50;59.01
64792;BME280;51226;47.504;19.074;2023-06-19T06:04:55;100229.69;;;20.62;58.69
64792;BME280;51226;47.504;19.074;2023-06-19T06:07:58;100242.00;;;20.73;58.09
64792;BME280;51226;47.504;19.074;2023-06-19T06:11:02;100242.88;;;20.74;58.55
64792;BME280;51226;47.504;19.074;2023-06-19T06:14:05;100244.59;;;20.84;58.74
64792;BME280;51226;47.504;19.074;2023-06-19T06:17:08;100236.53;;;21.00;59.02
64792;BME280;51226;47.504;19.074;2023-06-19T06:20:10;100231.13;;;21.15;58.81
64792;BME280;51226;47.504;19.074;2023-06-19T06:23:15;100231.88;;;21.29;58.61
64792;BME280;51226;47.504;19.074;2023-06-19T06:26:17;100236.16;;;21.44;58.34
64792;BME280;51226;47.504;19.074;2023-06-19T06:29:21;100241.38;;;21.58;57.68
64792;BME280;51226;47.504;19.074;2023-06-19T06:32:23;100239.50;;;21.70;57.87
64792;BME280;51226;47.504;19.074;2023-06-19T06:35:27;100235.81;;;21.83;57.91
64792;BME280;51226;47.504;19.074;2023-06-19T06:38:29;100242.75;;;21.96;55.44
64792;BME280;51226;47.504;19.074;2023-06-19T06:41:32;100241.72;;;22.10;55.71
64792;BME280;51226;47.504;19.074;2023-06-19T06:44:35;100242.41;;;22.27;55.66
64792;BME280;51226;47.504;19.074;2023-06-19T06:47:38;100243.03;;;22.49;55.02
64792;BME280;51226;47.504;19.074;2023-06-19T06:50:42;100241.00;;;22.68;52.91
64792;BME280;51226;47.504;19.074;2023-06-19T06:53:45;100244.91;;;23.03;51.98
64792;BME280;51226;47.504;19.074;2023-06-19T06:56:47;100247.72;;;22.94;51.64
64792;BME280;51226;47.504;19.074;2023-06-19T06:59:50;100247.81;;;22.88;53.70
64792;BME280;51226;47.504;19.074;2023-06-19T07:02:53;100233.37;;;23.04;52.29
64792;BME280;51226;47.504;19.074;2023-06-19T07:05:57;100238.47;;;23.20;51.95
64792;BME280;51226;47.504;19.074;2023-06-19T07:08:59;100240.91;;;23.34;51.87
64792;BME280;51226;47.504;19.074;2023-06-19T07:12:02;100240.53;;;23.55;50.89
64792;BME280;51226;47.504;19.074;2023-06-19T07:15:07;100245.50;;;23.75;50.55
64792;BME280;51226;47.504;19.074;2023-06-19T07:18:10;100238.03;;;23.97;50.13
64792;BME280;51226;47.504;19.074;2023-06-19T07:21:13;100235.84;;;24.18;48.96
64792;BME280;51226;47.504;19.074;2023-06-19T07:24:17;100238.25;;;24.29;48.96
64792;BME280;51226;47.504;19.074;2023-06-19T07:27:20;100229.91;;;24.46;48.49
64792;BME280;51226;47.504;19.074;2023-06-19T07:30:23;100235.88;;;24.58;48.33
64792;BME280;51226;47.504;19.074;2023-06-19T07:33:26;100227.50;;;24.75;46.40
64792;BME280;51226;47.504;19.074;2023-06-19T07:36:29;100233.72;;;25.13;44.79
64792;BME280;51226;47.504;19.074;2023-06-19T07:39:31;100229.97;;;25.21;46.23
64792;BME280;51226;47.504;19.074;2023-06-19T07:42:34;100231.25;;;25.42;44.59
64792;BME280;51226;47.504;19.074;2023-06-19T07:45:37;100232.53;;;25.61;44.95
64792;BME280;51226;47.504;19.074;2023-06-19T07:48:40;100237.19;;;25.86;44.23
64792;BME280;51226;47.504;19.074;2023-06-19T07:51:42;100228.28;;;26.20;42.53
64792;BME280;51226;47.504;19.074;2023-06-19T07:54:55;100232.59;;;26.24;43.03
64792;BME280;51226;47.504;19.074;2023-06-19T07:57:57;100230.19;;;26.44;43.68
64792;BME280;51226;47.504;19.074;2023-06-19T08:01:00;100225.59;;;26.79;42.79
64792;BME280;51226;47.504;19.074;2023-06-19T08:04:03;100230.81;;;26.84;41.74
64792;BME280;51226;47.504;19.074;2023-06-19T08:07:06;100220.72;;;26.92;42.41
64792;BME280;51226;47.504;19.074;2023-06-19T08:10:08;100218.12;;;27.17;41.33
64792;BME280;51226;47.504;19.074;2023-06-19T08:13:28;100221.88;;;27.40;40.83
64792;BME280;51226;47.504;19.074;2023-06-19T08:16:31;100207.78;;;27.85;40.04
64792;BME280;51226;47.504;19.074;2023-06-19T08:19:34;100219.03;;;28.20;40.04
64792;BME280;51226;47.504;19.074;2023-06-19T08:22:36;100214.56;;;28.43;38.85
64792;BME280;51226;47.504;19.074;2023-06-19T08:25:39;100211.09;;;28.41;39.12
64792;BME280;51226;47.504;19.074;2023-06-19T08:28:42;100213.41;;;28.26;38.43
64792;BME280;51226;47.504;19.074;2023-06-19T08:31:45;100213.87;;;28.38;38.17
64792;BME280;51226;47.504;19.074;2023-06-19T08:34:48;100213.53;;;28.47;36.57
64792;BME280;51226;47.504;19.074;2023-06-19T08:37:51;100218.44;;;28.36;38.74
64792;BME280;51226;47.504;19.074;2023-06-19T08:40:53;100222.09;;;28.33;38.94
64792;BME280;51226;47.504;19.074;2023-06-19T08:43:57;100221.75;;;28.42;38.16
64792;BME280;51226;47.504;19.074;2023-06-19T08:47:01;100216.91;;;28.52;39.46
64792;BME280;51226;47.504;19.074;2023-06-19T08:50:04;100214.56;;;28.67;38.92
64792;BME280;51226;47.504;19.074;2023-06-19T08:53:07;100208.62;;;28.58;38.28
64792;BME280;51226;47.504;19.074;2023-06-19T08:56:09;100216.34;;;28.68;39.20
64792;BME280;51226;47.504;19.074;2023-06-19T08:59:16;100211.78;;;29.14;38.09
64792;BME280;51226;47.504;19.074;2023-06-19T09:02:19;100206.75;;;29.69;35.18
64792;BME280;51226;47.504;19.074;2023-06-19T09:05:23;100211.66;;;30.20;36.18
64792;BME280;51226;47.504;19.074;2023-06-19T09:08:25;100205.31;;;30.41;36.63
64792;BME280;51226;47.504;19.074;2023-06-19T09:11:29;100198.16;;;30.97;38.05
64792;BME280;51226;47.504;19.074;2023-06-19T09:14:32;100199.53;;;31.58;34.82
64792;BME280;51226;47.504;19.074;2023-06-19T09:17:36;100204.00;;;32.10;32.89
64792;BME280;51226;47.504;19.074;2023-06-19T09:20:42;100207.34;;;32.31;30.98
64792;BME280;51226;47.504;19.074;2023-06-19T09:23:50;100200.97;;;32.32;33.37
64792;BME280;51226;47.504;19.074;2023-06-19T09:27:04;100203.75;;;32.15;34.92
64792;BME280;51226;47.504;19.074;2023-06-19T09:30:07;100202.84;;;32.48;32.77
64792;BME280;51226;47.504;19.074;2023-06-19T09:33:11;100200.41;;;32.75;28.51
64792;BME280;51226;47.504;19.074;2023-06-19T09:36:14;100194.91;;;32.45;31.04
64792;BME280;51226;47.504;19.074;2023-06-19T09:39:17;100195.66;;;32.31;32.57
64792;BME280;51226;47.504;19.074;2023-06-19T09:42:26;100193.56;;;32.70;31.61
64792;BME280;51226;47.504;19.074;2023-06-19T09:45:30;100190.53;;;33.22;30.22
64792;BME280;51226;47.504;19.074;2023-06-19T09:48:33;100190.66;;;33.79;27.68
64792;BME280;51226;47.504;19.074;2023-06-19T09:51:37;100185.53;;;34.18;28.40
64792;BME280;51226;47.504;19.074;2023-06-19T09:54:43;100191.81;;;34.33;30.04
64792;BME280;51226;47.504;19.074;2023-06-19T09:57:49;100184.44;;;34.49;28.94
64792;BME280;51226;47.504;19.074;2023-06-19T10:00:52;100182.94;;;34.31;26.19
64792;BME280;51226;47.504;19.074;2023-06-19T10:04:07;100176.09;;;33.96;27.79
64792;BME280;51226;47.504;19.074;2023-06-19T10:07:20;100164.66;;;34.06;28.89
64792;BME280;51226;47.504;19.074;2023-06-19T10:10:24;100156.53;;;34.76;25.04
64792;BME280;51226;47.504;19.074;2023-06-19T10:13:36;100148.19;;;34.79;24.51
64792;BME280;51226;47.504;19.074;2023-06-19T10:16:41;100155.78;;;34.60;25.32
64792;BME280;51226;47.504;19.074;2023-06-19T10:19:51;100150.62;;;34.42;29.60
64792;BME280;51226;47.504;19.074;2023-06-19T10:26:01;100146.06;;;34.43;25.35
64792;BME280;51226;47.504;19.074;2023-06-19T10:29:15;100149.06;;;34.38;27.61
64792;BME280;51226;47.504;19.074;2023-06-19T10:32:18;100146.22;;;34.54;24.51
64792;BME280;51226;47.504;19.074;2023-06-19T10:35:23;100145.59;;;34.36;26.56
64792;BME280;51226;47.504;19.074;2023-06-19T10:38:27;100141.06;;;34.64;28.17
64792;BME280;51226;47.504;19.074;2023-06-19T10:41:29;100131.34;;;34.88;28.24
64792;BME280;51226;47.504;19.074;2023-06-19T10:44:34;100140.12;;;35.05;25.35
64792;BME280;51226;47.504;19.074;2023-06-19T10:47:38;100135.13;;;34.71;27.53
64792;BME280;51226;47.504;19.074;2023-06-19T10:50:41;100132.75;;;34.67;27.91
64792;BME280;51226;47.504;19.074;2023-06-19T10:53:47;100131.69;;;34.97;26.70
64792;BME280;51226;47.504;19.074;2023-06-19T10:56:49;100135.56;;;35.58;25.27
64792;BME280;51226;47.504;19.074;2023-06-19T10:59:53;100139.06;;;35.60;23.78
64792;BME280;51226;47.504;19.074;2023-06-19T11:02:56;100125.34;;;35.36;25.04
64792;BME280;51226;47.504;19.074;2023-06-19T11:06:00;100125.16;;;35.39;23.55
64792;BME280;51226;47.504;19.074;2023-06-19T11:09:02;100134.59;;;35.06;27.48
64792;BME280;51226;47.504;19.074;2023-06-19T11:12:09;100127.69;;;35.15;27.00
64792;BME280;51226;47.504;19.074;2023-06-19T11:15:12;100130.34;;;35.30;27.61
64792;BME280;51226;47.504;19.074;2023-06-19T11:18:16;100126.78;;;35.42;27.02
64792;BME280;51226;47.504;19.074;2023-06-19T11:21:19;100130.12;;;35.58;25.40
64792;BME280;51226;47.504;19.074;2023-06-19T11:24:22;100118.03;;;35.77;22.25
64792;BME280;51226;47.504;19.074;2023-06-19T11:27:25;100122.09;;;35.70;23.71
64792;BME280;51226;47.504;19.074;2023-06-19T11:30:32;100118.31;;;35.72;22.34
64792;BME280;51226;47.504;19.074;2023-06-19T11:33:35;100114.50;;;35.36;23.34
64792;BME280;51226;47.504;19.074;2023-06-19T11:36:38;100105.09;;;35.42;25.61
64792;BME280;51226;47.504;19.074;2023-06-19T11:39:45;100107.88;;;35.53;22.81
64792;BME280;51226;47.504;19.074;2023-06-19T11:42:49;100111.19;;;35.18;22.91
64792;BME280;51226;47.504;19.074;2023-06-19T11:45:51;100102.94;;;34.94;23.19
64792;BME280;51226;47.504;19.074;2023-06-19T11:48:56;100098.37;;;34.95;23.88
64792;BME280;51226;47.504;19.074;2023-06-19T11:52:09;100092.28;;;34.91;23.40
64792;BME280;51226;47.504;19.074;2023-06-19T11:55:12;100088.69;;;34.50;23.50
64792;BME280;51226;47.504;19.074;2023-06-19T11:58:15;100093.38;;;34.34;24.53
64792;BME280;51226;47.504;19.074;2023-06-19T12:01:20;100093.34;;;34.48;23.68
64792;BME280;51226;47.504;19.074;2023-06-19T12:04:23;100085.13;;;34.50;24.24
64792;BME280;51226;47.504;19.074;2023-06-19T12:07:26;100087.75;;;35.04;24.41
64792;BME280;51226;47.504;19.074;2023-06-19T12:10:28;100092.34;;;35.17;26.50
64792;BME280;51226;47.504;19.074;2023-06-19T12:13:31;100089.75;;;35.15;25.22
64792;BME280;51226;47.504;19.074;2023-06-19T12:16:34;100090.19;;;35.22;22.25
64792;BME280;51226;47.504;19.074;2023-06-19T12:19:36;100084.78;;;34.55;22.95
64792;BME280;51226;47.504;19.074;2023-06-19T12:22:39;100073.66;;;34.32;25.66
64792;BME280;51226;47.504;19.074;2023-06-19T12:25:42;100073.31;;;34.24;23.57
64792;BME280;51226;47.504;19.074;2023-06-19T12:28:45;100076.38;;;34.18;23.54
64792;BME280;51226;47.504;19.074;2023-06-19T12:31:48;100073.28;;;34.09;25.25
64792;BME280;51226;47.504;19.074;2023-06-19T12:34:51;100064.59;;;34.04;23.61
64792;BME280;51226;47.504;19.074;2023-06-19T12:37:56;100060.47;;;33.99;27.66
64792;BME280;51226;47.504;19.074;2023-06-19T12:40:59;100054.97;;;34.42;24.61
64792;BME280;51226;47.504;19.074;2023-06-19T12:44:02;100061.69;;;34.76;23.81
64792;BME280;51226;47.504;19.074;2023-06-19T12:47:04;100056.50;;;34.86;23.83
64792;BME280;51226;47.504;19.074;2023-06-19T12:50:07;100050.34;;;34.84;23.78
64792;BME280;51226;47.504;19.074;2023-06-19T12:53:10;100050.03;;;34.88;23.90
64792;BME280;51226;47.504;19.074;2023-06-19T12:56:14;100056.09;;;34.92;25.06
64792;BME280;51226;47.504;19.074;2023-06-19T12:59:16;100047.19;;;34.77;25.92
64792;BME280;51226;47.504;19.074;2023-06-19T13:02:19;100041.47;;;34.67;25.07
64792;BME280;51226;47.504;19.074;2023-06-19T13:05:22;100046.56;;;34.59;24.37
64792;BME280;51226;47.504;19.074;2023-06-19T13:08:24;100051.88;;;34.61;24.66
64792;BME280;51226;47.504;19.074;2023-06-19T13:11:27;100044.03;;;34.56;26.56
64792;BME280;51226;47.504;19.074;2023-06-19T13:14:30;100035.22;;;34.40;25.23
64792;BME280;51226;47.504;19.074;2023-06-19T13:17:34;100032.41;;;34.41;25.95
64792;BME280;51226;47.504;19.074;2023-06-19T13:20:37;100030.94;;;34.50;25.90
64792;BME280;51226;47.504;19.074;2023-06-19T13:23:40;100024.09;;;34.44;27.77
64792;BME280;51226;47.504;19.074;2023-06-19T13:26:43;100025.75;;;34.60;25.21
64792;BME280;51226;47.504;19.074;2023-06-19T13:29:45;100026.50;;;34.49;26.31
64792;BME280;51226;47.504;19.074;2023-06-19T13:32:48;100027.53;;;34.46;28.33
64792;BME280;51226;47.504;19.074;2023-06-19T13:35:51;100027.06;;;34.27;26.53
64792;BME280;51226;47.504;19.074;2023-06-19T13:38:55;100020.88;;;34.25;26.05
64792;BME280;51226;47.504;19.074;2023-06-19T13:41:57;100020.72;;;34.13;28.78
64792;BME280;51226;47.504;19.074;2023-06-19T13:45:05;100022.63;;;34.11;28.68
64792;BME280;51226;47.504;19.074;2023-06-19T13:48:09;100017.84;;;34.02;27.30
64792;BME280;51226;47.504;19.074;2023-06-19T13:51:11;100012.91;;;33.94;26.37
64792;BME280;51226;47.504;19.074;2023-06-19T13:54:14;100017.75;;;33.89;26.44
64792;BME280;51226;47.504;19.074;2023-06-19T13:57:17;100010.41;;;33.91;26.16
64792;BME280;51226;47.504;19.074;2023-06-19T14:00:19;100011.31;;;33.63;28.52
64792;BME280;51226;47.504;19.074;2023-06-19T14:03:23;100015.38;;;33.27;27.51
64792;BME280;51226;47.504;19.074;2023-06-19T14:06:26;100020.06;;;32.95;29.04
64792;BME280;51226;47.504;19.074;2023-06-19T14:09:29;100015.09;;;32.57;31.76
64792;BME280;51226;47.504;19.074;2023-06-19T14:12:32;100021.25;;;32.28;30.79
64792;BME280;51226;47.504;19.074;2023-06-19T14:15:35;100024.41;;;32.05;29.98
64792;BME280;51226;47.504;19.074;2023-06-19T14:18:37;100023.34;;;31.75;29.18
64792;BME280;51226;47.504;19.074;2023-06-19T14:21:40;100016.53;;;31.52;31.24
64792;BME280;51226;47.504;19.074;2023-06-19T14:24:43;100010.37;;;31.33;31.36
64792;BME280;51226;47.504;19.074;2023-06-19T14:27:46;100007.94;;;31.28;29.63
64792;BME280;51226;47.504;19.074;2023-06-19T14:30:48;100008.78;;;31.29;30.01
64792;BME280;51226;47.504;19.074;2023-06-19T14:33:52;100005.69;;;31.36;28.84
64792;BME280;51226;47.504;19.074;2023-06-19T14:36:54;100018.56;;;31.31;29.58
64792;BME280;51226;47.504;19.074;2023-06-19T14:39:57;100015.94;;;31.30;29.97
64792;BME280;51226;47.504;19.074;2023-06-19T14:42:59;100010.37;;;31.33;29.22
64792;BME280;51226;47.504;19.074;2023-06-19T14:46:02;100010.88;;;31.24;30.56
64792;BME280;51226;47.504;19.074;2023-06-19T14:49:06;100015.72;;;31.17;29.81
64792;BME280;51226;47.504;19.074;2023-06-19T14:52:10;99997.75;;;31.17;29.22
64792;BME280;51226;47.504;19.074;2023-06-19T14:55:12;99999.63;;;31.15;29.55
64792;BME280;51226;47.504;19.074;2023-06-19T14:58:15;100013.72;;;31.20;30.36
64792;BME280;51226;47.504;19.074;2023-06-19T15:01:17;100000.25;;;31.20;30.32
64792;BME280;51226;47.504;19.074;2023-06-19T15:04:20;100001.00;;;31.24;29.80
64792;BME280;51226;47.504;19.074;2023-06-19T15:07:23;99992.00;;;31.24;29.67
64792;BME280;51226;47.504;19.074;2023-06-19T15:10:27;99994.50;;;31.11;29.38
64792;BME280;51226;47.504;19.074;2023-06-19T15:13:29;99998.63;;;31.00;29.85
64792;BME280;51226;47.504;19.074;2023-06-19T15:16:32;100000.13;;;30.89;30.12
64792;BME280;51226;47.504;19.074;2023-06-19T15:19:38;99998.56;;;30.84;29.81
64792;BME280;51226;47.504;19.074;2023-06-19T15:22:41;99993.00;;;30.88;29.69
64792;BME280;51226;47.504;19.074;2023-06-19T15:25:44;99992.13;;;30.87;30.22
64792;BME280;51226;47.504;19.074;2023-06-19T15:28:47;100002.53;;;30.77;30.38
64792;BME280;51226;47.504;19.074;2023-06-19T15:31:49;99998.16;;;30.75;30.77
64792;BME280;51226;47.504;19.074;2023-06-19T15:34:52;100006.16;;;30.76;30.62
64792;BME280;51226;47.504;19.074;2023-06-19T15:37:55;100004.25;;;30.78;30.62
64792;BME280;51226;47.504;19.074;2023-06-19T15:41:01;99994.53;;;30.76;30.75
64792;BME280;51226;47.504;19.074;2023-06-19T15:44:03;100001.25;;;30.67;31.32
64792;BME280;51226;47.504;19.074;2023-06-19T15:47:06;99995.69;;;30.70;30.89
64792;BME280;51226;47.504;19.074;2023-06-19T15:50:09;99995.22;;;30.79;30.26